Time;durP1;ratioP1;P1;durP2;ratioP2;P2;SDS_P1;SDS_P2;PMS_P1;PMS_P2;Temp;Humidity;BMP_temperature;BMP_pressure;BME280_temperature;BME280_humidity;BME280_pressure;Samples;Min_cycle;Max_cycle;Signal;HPM_P1;HPM_P2
2023/09/16 00:00:32;;;;;;;3.05;2.15;;;19.10;99.90;;;;;;4137451;28;20038;-71
2023/09/16 00:02:33;;;;;;;4.32;2.03;;;19.10;99.90;;;;;;4137079;28;20050;-71
2023/09/16 00:04:33;;;;;;;3.15;2.08;;;19.10;99.90;;;;;;4127490;28;20391;-71
2023/09/16 00:06:34;;;;;;;2.83;2.03;;;19.00;99.90;;;;;;4127495;28;20052;-71
2023/09/16 00:08:35;;;;;;;3.08;2.13;;;19.10;99.90;;;;;;4129020;28;20126;-71
2023/09/16 00:10:36;;;;;;;3.28;2.08;;;19.10;99.90;;;;;;4133501;28;20494;-71
2023/09/16 00:12:36;;;;;;;3.20;2.15;;;19.10;99.90;;;;;;4126832;28;20058;-71
2023/09/16 00:14:37;;;;;;;3.88;2.38;;;19.00;99.90;;;;;;4124722;28;20096;-72
2023/09/16 00:16:37;;;;;;;3.08;2.17;;;19.00;99.90;;;;;;4128529;28;20046;-71
2023/09/16 00:18:38;;;;;;;3.45;2.33;;;19.00;99.90;;;;;;4126766;28;20050;-71
2023/09/16 00:20:39;;;;;;;3.58;2.40;;;19.00;99.90;;;;;;4138220;28;20042;-71
2023/09/16 00:22:41;;;;;;;5.15;2.97;;;19.10;99.90;;;;;;4126061;28;20388;-71
2023/09/16 00:24:42;;;;;;;2.92;2.25;;;19.00;99.90;;;;;;4129461;28;20130;-71
2023/09/16 00:26:43;;;;;;;4.22;2.38;;;19.00;99.90;;;;;;4125508;28;20503;-71
2023/09/16 00:28:43;;;;;;;3.03;2.28;;;19.10;99.90;;;;;;4126824;28;20042;-71
2023/09/16 00:30:48;;;;;;;2.97;2.10;;;19.00;99.90;;;;;;4131691;28;20046;-71
2023/09/16 00:32:49;;;;;;;2.80;2.08;;;19.10;99.90;;;;;;4125570;28;20038;-71
2023/09/16 00:34:51;;;;;;;4.95;3.03;;;19.10;99.90;;;;;;4128740;28;20081;-70
2023/09/16 00:36:51;;;;;;;2.63;2.00;;;19.00;99.90;;;;;;4126616;28;20092;-71
2023/09/16 00:38:52;;;;;;;3.65;2.25;;;19.10;99.90;;;;;;4129770;28;20135;-76
2023/09/16 00:40:52;;;;;;;2.78;2.17;;;19.10;99.90;;;;;;4131375;28;20101;-68
2023/09/16 00:42:53;;;;;;;3.83;2.22;;;19.10;99.90;;;;;;4128670;28;20038;-67
2023/09/16 00:44:54;;;;;;;3.05;2.05;;;19.00;99.90;;;;;;4129209;28;20038;-68
2023/09/16 00:46:54;;;;;;;2.70;1.88;;;19.00;99.90;;;;;;4126697;28;20053;-67
2023/09/16 00:48:55;;;;;;;3.28;1.92;;;18.90;99.90;;;;;;4128332;28;20095;-68
2023/09/16 00:50:56;;;;;;;3.70;2.15;;;18.90;99.90;;;;;;4136857;28;20541;-68
2023/09/16 00:52:59;;;;;;;4.88;1.77;;;18.90;99.90;;;;;;4126244;28;20141;-67
2023/09/16 00:55:00;;;;;;;5.10;1.92;;;18.90;99.90;;;;;;4125608;28;20447;-67
2023/09/16 00:57:02;;;;;;;3.10;2.13;;;18.90;99.90;;;;;;4126207;28;20043;-67
2023/09/16 00:59:03;;;;;;;;;;;18.90;99.90;;;;;;4131223;28;20054;-67
2023/09/16 01:01:04;;;;;;;2.42;1.88;;;18.80;99.90;;;;;;4139884;28;19915;-68
2023/09/16 01:03:06;;;;;;;3.20;2.33;;;18.90;99.90;;;;;;4126972;28;20062;-67
2023/09/16 01:05:15;;;;;;;3.10;2.00;;;18.90;99.90;;;;;;4126208;28;20386;-67
2023/09/16 01:07:17;;;;;;;3.08;2.20;;;18.90;99.90;;;;;;4128583;28;20038;-67
2023/09/16 01:09:20;;;;;;;2.70;2.10;;;18.80;99.90;;;;;;4124641;28;20061;-68
2023/09/16 01:11:24;;;;;;;3.47;2.35;;;18.90;99.90;;;;;;4132811;28;20046;-67
2023/09/16 01:13:25;;;;;;;4.57;2.10;;;18.90;99.90;;;;;;4124459;28;20041;-67
2023/09/16 01:15:32;;;;;;;3.03;2.35;;;18.90;99.90;;;;;;4123074;28;20038;-67
2023/09/16 01:18:03;;;;;;;4.22;2.20;;;18.90;99.90;;;;;;4123463;28;20046;-67
2023/09/16 01:20:11;;;;;;;3.00;2.00;;;18.90;99.90;;;;;;4125017;28;20034;-70
2023/09/16 01:22:12;;;;;;;4.05;2.40;;;18.90;99.90;;;;;;4137840;28;20124;-67
2023/09/16 01:24:18;;;;;;;4.73;2.80;;;18.90;99.90;;;;;;4128557;28;20030;-68
2023/09/16 01:26:19;;;;;;;3.60;2.60;;;18.90;99.90;;;;;;4118737;28;20032;-67
2023/09/16 01:28:22;;;;;;;5.15;3.03;;;19.00;99.90;;;;;;4125361;28;20119;-67
2023/09/16 01:30:27;;;;;;;6.20;2.83;;;18.90;99.90;;;;;;4117331;28;20097;-68
2023/09/16 01:32:34;;;;;;;4.15;2.70;;;18.90;99.90;;;;;;4123119;28;20041;-68
2023/09/16 01:34:46;;;;;;;3.55;2.38;;;19.00;99.90;;;;;;4125123;28;20041;-67
2023/09/16 01:36:52;;;;;;;3.83;2.75;;;19.00;99.90;;;;;;4126491;28;20125;-67
2023/09/16 01:38:59;;;;;;;3.63;2.60;;;19.00;99.90;;;;;;4127578;28;20556;-68
2023/09/16 01:41:03;;;;;;;5.85;3.10;;;19.00;99.90;;;;;;4125429;28;20495;-67
2023/09/16 01:43:04;;;;;;;4.10;2.53;;;19.00;99.90;;;;;;4123934;28;20046;-67
2023/09/16 01:45:06;;;;;;;3.53;2.67;;;19.00;99.90;;;;;;4120512;28;20031;-68
2023/09/16 01:47:07;;;;;;;3.27;2.60;;;19.00;99.90;;;;;;4124308;28;20057;-67
2023/09/16 01:49:07;;;;;;;3.83;2.63;;;19.00;99.90;;;;;;4124183;28;20038;-62
2023/09/16 01:51:08;;;;;;;2.92;2.33;;;19.00;99.90;;;;;;4124164;28;20037;-62
2023/09/16 01:53:09;;;;;;;3.13;2.63;;;19.00;99.90;;;;;;4127244;28;20388;-61
2023/09/16 01:55:10;;;;;;;3.95;2.40;;;19.00;99.90;;;;;;4123276;28;20061;-62
2023/09/16 01:57:11;;;;;;;3.67;2.20;;;19.00;99.90;;;;;;4123223;28;20034;-61
2023/09/16 01:59:11;;;;;;;3.92;2.72;;;19.10;99.90;;;;;;4124376;28;21197;-62
2023/09/16 02:01:12;;;;;;;4.28;2.80;;;19.10;99.90;;;;;;4121357;28;20034;-62
2023/09/16 02:03:12;;;;;;;4.85;2.70;;;19.00;99.90;;;;;;4123983;28;20042;-62
2023/09/16 02:05:13;;;;;;;3.85;2.70;;;19.10;99.90;;;;;;4123469;28;20058;-63
2023/09/16 02:07:14;;;;;;;5.20;2.70;;;19.00;99.90;;;;;;4124032;28;20995;-62
2023/09/16 02:09:14;;;;;;;3.55;2.45;;;19.10;99.90;;;;;;4130534;28;20038;-71
2023/09/16 02:11:15;;;;;;;3.80;2.67;;;19.00;99.90;;;;;;4137510;28;20049;-71
2023/09/16 02:13:15;;;;;;;3.40;2.58;;;19.10;99.90;;;;;;4136767;28;20037;-71
2023/09/16 02:15:16;;;;;;;4.97;2.92;;;19.10;99.90;;;;;;4123388;28;20117;-71
2023/09/16 02:17:17;;;;;;;4.78;3.17;;;19.00;99.90;;;;;;4126741;28;20034;-69
2023/09/16 02:19:18;;;;;;;3.97;2.85;;;19.10;99.90;;;;;;4134405;28;20053;-70
2023/09/16 02:21:19;;;;;;;4.43;2.70;;;19.10;99.90;;;;;;4131598;28;20060;-70
2023/09/16 02:23:21;;;;;;;7.50;2.67;;;19.00;99.90;;;;;;4125782;28;20031;-70
2023/09/16 02:25:22;;;;;;;3.60;2.70;;;19.00;99.90;;;;;;4122928;28;20434;-70
2023/09/16 02:27:22;;;;;;;3.55;2.63;;;19.00;99.90;;;;;;4129792;28;20058;-70
2023/09/16 02:29:23;;;;;;;7.18;3.03;;;19.00;99.90;;;;;;4136412;28;20065;-71
2023/09/16 02:31:26;;;;;;;4.10;2.80;;;19.00;99.90;;;;;;4130080;28;20522;-70
2023/09/16 02:33:27;;;;;;;4.35;2.83;;;19.00;99.90;;;;;;4131012;28;20509;-71
2023/09/16 02:35:28;;;;;;;4.90;3.00;;;19.00;99.90;;;;;;4128054;28;20129;-71
2023/09/16 02:37:29;;;;;;;3.83;2.60;;;19.00;99.90;;;;;;4129886;28;20114;-71
2023/09/16 02:39:29;;;;;;;3.33;2.50;;;19.00;99.90;;;;;;4130443;28;20070;-71
2023/09/16 02:41:30;;;;;;;5.32;3.17;;;19.00;99.90;;;;;;4140303;28;20037;-71
2023/09/16 02:43:31;;;;;;;6.13;3.22;;;18.90;99.90;;;;;;4146999;28;20053;-71
2023/09/16 02:45:31;;;;;;;4.25;3.10;;;18.90;99.90;;;;;;4132346;28;20450;-71
2023/09/16 02:47:33;;;;;;;5.15;2.83;;;18.90;99.90;;;;;;4129267;28;20045;-71
2023/09/16 02:49:34;;;;;;;4.53;2.97;;;18.90;99.90;;;;;;4137131;28;20037;-71
2023/09/16 02:51:34;;;;;;;5.55;2.90;;;18.90;99.90;;;;;;4138200;28;20265;-71
2023/09/16 02:53:36;;;;;;;4.47;2.78;;;18.90;99.90;;;;;;4128564;28;20046;-71
2023/09/16 02:55:37;;;;;;;4.45;2.85;;;18.90;99.90;;;;;;4129246;28;20475;-71
2023/09/16 02:57:37;;;;;;;6.35;3.05;;;18.90;99.90;;;;;;4130079;28;20042;-71
2023/09/16 02:59:38;;;;;;;4.55;3.05;;;18.80;99.90;;;;;;4128846;28;20446;-71
2023/09/16 03:01:38;;;;;;;4.35;3.17;;;18.80;99.90;;;;;;4128411;28;20085;-71
2023/09/16 03:03:40;;;;;;;3.53;2.70;;;18.80;99.90;;;;;;4124712;28;20030;-70
2023/09/16 03:05:41;;;;;;;4.70;3.00;;;18.80;99.90;;;;;;4126575;28;20038;-71
2023/09/16 03:07:43;;;;;;;4.20;2.92;;;18.80;99.90;;;;;;4129911;28;20479;-71
2023/09/16 03:09:43;;;;;;;5.10;3.10;;;18.80;99.90;;;;;;4119379;28;20089;-71
2023/09/16 03:11:44;;;;;;;4.43;2.70;;;18.80;99.90;;;;;;4135890;28;20471;-71
2023/09/16 03:13:44;;;;;;;3.35;2.72;;;18.70;99.90;;;;;;4120868;28;20041;-71
2023/09/16 03:15:46;;;;;;;5.80;2.65;;;18.70;99.90;;;;;;4126076;28;20058;-71
2023/09/16 03:17:47;;;;;;;4.10;2.78;;;18.70;99.90;;;;;;4127139;28;20057;-71
2023/09/16 03:19:47;;;;;;;4.63;3.10;;;18.70;99.90;;;;;;4127496;28;20395;-66
2023/09/16 03:21:48;;;;;;;5.05;2.90;;;18.70;99.90;;;;;;4137872;28;20088;-66
2023/09/16 03:23:48;;;;;;;7.07;3.28;;;18.60;99.90;;;;;;4135081;28;20240;-65
2023/09/16 03:25:49;;;;;;;3.53;2.92;;;18.60;99.90;;;;;;4126210;28;20527;-66
2023/09/16 03:27:49;;;;;;;5.72;3.38;;;18.60;99.90;;;;;;4129302;28;20036;-66
2023/09/16 03:29:50;;;;;;;4.93;2.92;;;18.50;99.90;;;;;;4131075;28;20031;-66
2023/09/16 03:31:51;;;;;;;4.05;3.10;;;18.50;99.90;;;;;;4126286;28;20038;-65
2023/09/16 03:33:52;;;;;;;4.18;2.90;;;18.50;99.90;;;;;;4128736;28;20034;-65
2023/09/16 03:35:52;;;;;;;4.78;2.95;;;18.50;99.90;;;;;;4132563;28;20117;-65
2023/09/16 03:37:53;;;;;;;6.50;3.40;;;18.50;99.90;;;;;;4138233;28;20051;-65
2023/09/16 03:39:53;;;;;;;4.53;3.28;;;18.50;99.90;;;;;;4131586;28;20034;-65
2023/09/16 03:41:54;;;;;;;6.00;2.78;;;18.50;99.90;;;;;;4142807;28;20088;-68
2023/09/16 03:43:55;;;;;;;3.50;2.90;;;18.50;99.90;;;;;;4139280;28;20038;-65
2023/09/16 03:45:56;;;;;;;4.95;3.00;;;18.40;99.90;;;;;;4126739;28;20125;-65
2023/09/16 03:47:57;;;;;;;4.38;2.67;;;18.40;99.90;;;;;;4129872;28;20034;-66
2023/09/16 03:49:57;;;;;;;3.95;2.95;;;18.40;99.90;;;;;;4136808;28;20026;-65
2023/09/16 03:51:58;;;;;;;3.88;2.83;;;18.40;99.90;;;;;;4140414;28;20034;-66
2023/09/16 03:53:59;;;;;;;5.28;3.03;;;18.40;99.90;;;;;;4140735;28;20030;-65
2023/09/16 03:56:05;;;;;;;5.25;3.05;;;18.40;99.90;;;;;;4127671;28;20035;-65
2023/09/16 03:58:05;;;;;;;4.50;2.85;;;18.40;99.90;;;;;;4129640;28;20050;-65
2023/09/16 04:00:07;;;;;;;5.68;3.33;;;18.40;99.90;;;;;;4134242;28;20042;-65
2023/09/16 04:02:08;;;;;;;5.63;3.33;;;18.40;99.90;;;;;;4125528;28;20034;-65
2023/09/16 04:04:10;;;;;;;11.95;3.35;;;18.40;99.90;;;;;;4126884;28;20081;-65
2023/09/16 04:06:10;;;;;;;4.38;2.80;;;18.40;99.90;;;;;;4102794;28;20043;-65
2023/09/16 04:08:11;;;;;;;4.72;2.90;;;18.40;99.90;;;;;;4128770;28;20554;-65
2023/09/16 04:10:11;;;;;;;4.35;2.72;;;18.30;99.90;;;;;;4125662;28;20038;-66
2023/09/16 04:12:12;;;;;;;4.72;2.88;;;18.40;99.90;;;;;;4123343;28;20039;-65
2023/09/16 04:14:13;;;;;;;4.55;2.85;;;18.30;99.90;;;;;;4129538;28;20034;-65
2023/09/16 04:16:14;;;;;;;4.78;2.78;;;18.20;99.90;;;;;;4126340;28;20049;-65
2023/09/16 04:18:14;;;;;;;3.42;2.42;;;18.20;99.90;;;;;;4129255;28;20074;-65
2023/09/16 04:20:15;;;;;;;3.63;2.67;;;18.10;99.90;;;;;;4133233;28;20042;-66
2023/09/16 04:22:16;;;;;;;3.55;2.50;;;18.10;99.90;;;;;;4135363;28;20041;-65
2023/09/16 04:24:19;;;;;;;3.58;2.80;;;18.10;99.90;;;;;;4126570;28;20043;-65
2023/09/16 04:26:20;;;;;;;5.32;2.88;;;18.00;99.90;;;;;;4127772;28;20034;-66
2023/09/16 04:28:21;;;;;;;4.43;3.13;;;18.00;99.90;;;;;;4129639;28;20042;-65
2023/09/16 04:30:21;;;;;;;3.70;2.67;;;17.90;99.90;;;;;;4137211;28;20041;-65
2023/09/16 04:32:22;;;;;;;5.90;3.13;;;17.80;99.90;;;;;;4139759;28;20074;-65
2023/09/16 04:34:22;;;;;;;4.43;2.92;;;17.80;99.90;;;;;;4143885;28;20042;-65
2023/09/16 04:36:23;;;;;;;4.25;2.95;;;17.80;99.90;;;;;;4125301;28;20479;-65
2023/09/16 04:38:24;;;;;;;3.17;2.45;;;17.70;99.90;;;;;;4127286;28;20047;-65
2023/09/16 04:40:24;;;;;;;3.63;2.58;;;17.70;99.90;;;;;;4128393;28;20049;-65
2023/09/16 04:42:30;;;;;;;3.30;2.30;;;17.80;99.90;;;;;;4144911;28;20383;-65
2023/09/16 04:44:30;;;;;;;3.85;2.80;;;17.80;99.90;;;;;;4144810;28;20112;-65
2023/09/16 04:46:31;;;;;;;4.07;2.75;;;17.80;99.90;;;;;;4139853;28;20057;-65
2023/09/16 04:48:32;;;;;;;3.83;2.25;;;17.80;99.90;;;;;;4124315;28;20048;-65
2023/09/16 04:50:32;;;;;;;4.63;2.80;;;17.80;99.90;;;;;;4138523;28;20038;-65
2023/09/16 04:52:33;;;;;;;3.30;2.58;;;17.80;99.90;;;;;;4143623;28;20034;-65
2023/09/16 04:54:35;;;;;;;3.55;2.50;;;17.90;99.90;;;;;;4144636;28;20026;-65
2023/09/16 04:56:36;;;;;;;3.10;2.60;;;17.90;99.90;;;;;;4123747;28;20034;-65
2023/09/16 04:58:37;;;;;;;3.40;2.50;;;17.90;99.90;;;;;;4140558;28;20113;-65
2023/09/16 05:00:38;;;;;;;3.90;2.60;;;17.90;99.90;;;;;;4135612;28;20053;-65
2023/09/16 05:02:38;;;;;;;4.20;2.75;;;17.90;99.90;;;;;;4137101;28;20812;-65
2023/09/16 05:04:39;;;;;;;3.42;2.60;;;18.00;99.90;;;;;;4130173;28;20037;-65
2023/09/16 05:06:40;;;;;;;3.65;2.42;;;18.00;99.90;;;;;;4120178;28;20034;-66
2023/09/16 05:08:41;;;;;;;3.45;2.70;;;17.90;99.90;;;;;;4128032;28;20042;-65
2023/09/16 05:10:42;;;;;;;4.07;2.65;;;18.00;99.90;;;;;;4132502;28;20535;-65
2023/09/16 05:12:42;;;;;;;4.68;2.83;;;18.00;99.90;;;;;;4127418;28;20080;-65
2023/09/16 05:14:43;;;;;;;5.35;2.70;;;18.00;99.90;;;;;;4127486;28;20432;-65
2023/09/16 05:16:44;;;;;;;4.35;3.05;;;18.00;99.90;;;;;;4122035;28;20050;-65
2023/09/16 05:18:44;;;;;;;4.07;2.60;;;18.00;99.90;;;;;;4126231;28;20042;-65
2023/09/16 05:20:45;;;;;;;3.25;2.55;;;18.00;99.90;;;;;;4131106;28;20038;-65
2023/09/16 05:22:47;;;;;;;3.97;2.72;;;18.00;99.90;;;;;;4133655;28;20517;-65
2023/09/16 05:24:47;;;;;;;4.53;2.73;;;18.00;99.90;;;;;;4127767;28;20035;-67
2023/09/16 05:26:48;;;;;;;6.40;3.00;;;18.00;99.90;;;;;;4124936;28;20273;-66
2023/09/16 05:28:50;;;;;;;3.88;2.50;;;18.00;99.90;;;;;;4131496;28;20039;-66
2023/09/16 05:30:56;;;;;;;3.38;2.60;;;18.00;99.90;;;;;;4127302;28;20069;-66
2023/09/16 05:32:57;;;;;;;4.78;3.08;;;18.00;99.90;;;;;;4130488;28;20038;-66
2023/09/16 05:34:57;;;;;;;5.18;3.63;;;18.00;99.90;;;;;;4141836;28;20442;-66
2023/09/16 05:36:58;;;;;;;4.03;2.85;;;18.00;99.90;;;;;;4104317;28;20108;-66
2023/09/16 05:39:00;;;;;;;5.50;3.20;;;18.00;99.90;;;;;;4122774;28;20673;-66
2023/09/16 05:41:01;;;;;;;3.97;2.78;;;18.10;99.90;;;;;;4119906;28;20041;-71
2023/09/16 05:43:02;;;;;;;3.60;2.65;;;18.00;99.90;;;;;;4121935;28;20058;-71
2023/09/16 05:45:03;;;;;;;4.88;2.92;;;18.10;99.90;;;;;;4123285;28;20030;-72
2023/09/16 05:47:04;;;;;;;4.85;3.38;;;18.10;99.90;;;;;;4124103;28;20043;-70
2023/09/16 05:49:08;;;;;;;4.10;3.00;;;18.10;99.90;;;;;;4132702;28;20034;-71
2023/09/16 05:51:10;;;;;;;5.43;3.33;;;18.10;99.90;;;;;;4127652;28;20058;-71
2023/09/16 05:53:10;;;;;;;4.90;3.30;;;18.10;99.90;;;;;;4125255;28;20042;-71
2023/09/16 05:55:11;;;;;;;5.72;3.15;;;18.10;99.90;;;;;;4130643;28;20479;-72
2023/09/16 05:57:12;;;;;;;4.85;3.20;;;18.10;99.90;;;;;;4124606;28;20038;-71
2023/09/16 05:59:15;;;;;;;4.68;3.47;;;18.20;99.90;;;;;;4129604;28;20082;-72
2023/09/16 06:01:15;;;;;;;4.18;3.03;;;18.20;99.90;;;;;;4121584;28;20038;-72
2023/09/16 06:03:16;;;;;;;4.72;3.15;;;18.20;99.90;;;;;;4125406;28;20041;-72
2023/09/16 06:05:16;;;;;;;4.18;3.10;;;18.20;99.90;;;;;;4116292;28;20030;-72
2023/09/16 06:07:17;;;;;;;5.10;3.30;;;18.20;99.90;;;;;;4128038;28;20035;-71
2023/09/16 06:09:18;;;;;;;5.13;3.58;;;18.20;99.90;;;;;;4129407;28;20034;-72
2023/09/16 06:11:18;;;;;;;3.95;3.10;;;18.20;99.90;;;;;;4125089;28;20035;-71
2023/09/16 06:13:19;;;;;;;5.45;3.00;;;18.20;99.90;;;;;;4139221;28;20042;-71
2023/09/16 06:15:20;;;;;;;4.65;3.25;;;18.20;99.90;;;;;;4131794;28;20454;-71
2023/09/16 06:17:22;;;;;;;5.35;3.53;;;18.20;99.90;;;;;;4125429;28;20054;-72
2023/09/16 06:19:24;;;;;;;;;;;18.30;99.90;;;;;;4114909;28;20069;-71
2023/09/16 06:21:25;;;;;;;6.00;3.88;;;18.30;99.90;;;;;;4118970;28;20380;-70
2023/09/16 06:23:25;;;;;;;6.18;3.50;;;18.50;99.90;;;;;;4124908;28;20041;-71
2023/09/16 06:25:26;;;;;;;6.25;3.78;;;18.70;99.90;;;;;;4129339;28;20123;-70
2023/09/16 06:27:27;;;;;;;6.47;4.05;;;18.80;99.90;;;;;;4127210;28;20391;-71
2023/09/16 06:29:28;;;;;;;4.97;3.50;;;19.00;99.90;;;;;;4127221;28;20041;-71
2023/09/16 06:31:28;;;;;;;4.30;3.20;;;19.20;99.90;;;;;;4125718;28;20165;-71
2023/09/16 06:33:29;;;;;;;5.15;3.60;;;19.40;99.90;;;;;;4126126;28;20478;-71
2023/09/16 06:35:30;;;;;;;7.40;3.40;;;19.60;99.90;;;;;;4125673;28;20089;-71
2023/09/16 06:37:30;;;;;;;5.70;3.60;;;19.90;99.90;;;;;;4127700;28;20420;-71
2023/09/16 06:39:32;;;;;;;5.50;3.53;;;20.10;99.90;;;;;;4130360;28;20100;-71
2023/09/16 06:41:33;;;;;;;5.85;4.30;;;20.30;99.90;;;;;;4129835;28;20058;-71
2023/09/16 06:43:34;;;;;;;4.75;3.50;;;20.60;99.90;;;;;;4126732;28;20487;-71
2023/09/16 06:45:34;;;;;;;6.10;3.63;;;20.80;99.90;;;;;;4122815;28;20034;-71
2023/09/16 06:47:35;;;;;;;7.10;4.55;;;21.00;99.90;;;;;;4125266;28;20030;-70
2023/09/16 06:49:35;;;;;;;5.20;3.80;;;21.20;99.90;;;;;;4133568;28;20121;-70
2023/09/16 06:51:36;;;;;;;4.88;3.60;;;21.40;99.90;;;;;;4136703;28;20037;-61
2023/09/16 06:53:37;;;;;;;9.23;4.63;;;21.50;99.90;;;;;;4125966;28;20121;-62
2023/09/16 06:55:37;;;;;;;8.35;4.85;;;21.70;99.90;;;;;;4135857;28;20031;-63
2023/09/16 06:57:38;;;;;;;6.00;3.97;;;21.70;99.90;;;;;;4120717;28;20113;-62
2023/09/16 06:59:39;;;;;;;6.93;4.50;;;21.80;99.90;;;;;;4127960;28;20109;-61
2023/09/16 07:01:39;;;;;;;6.93;4.50;;;21.70;99.90;;;;;;4122384;28;20046;-62
2023/09/16 07:03:40;;;;;;;10.82;5.15;;;21.80;99.90;;;;;;4128233;28;20073;-62
2023/09/16 07:05:49;;;;;;;8.80;4.28;;;21.70;99.90;;;;;;4130469;28;20073;-62
2023/09/16 07:07:52;;;;;;;7.97;5.38;;;21.70;99.90;;;;;;4125916;28;20034;-61
2023/09/16 07:09:56;;;;;;;7.55;4.95;;;21.80;99.90;;;;;;4128539;28;20042;-62
2023/09/16 07:11:57;;;;;;;8.07;5.10;;;21.80;99.90;;;;;;4125700;28;20116;-62
2023/09/16 07:13:57;;;;;;;9.27;5.95;;;21.90;99.90;;;;;;4128345;28;20046;-62
2023/09/16 07:15:58;;;;;;;14.50;6.18;;;21.80;99.90;;;;;;4128840;28;20130;-61
2023/09/16 07:17:58;;;;;;;7.70;5.43;;;21.80;99.90;;;;;;4127834;28;20047;-62
2023/09/16 07:19:59;;;;;;;10.63;5.90;;;21.80;99.90;;;;;;4137342;28;20037;-62
2023/09/16 07:22:00;;;;;;;9.80;5.50;;;21.70;99.90;;;;;;4130285;28;20035;-62
2023/09/16 07:24:02;;;;;;;7.60;4.82;;;21.70;99.90;;;;;;4130475;28;20045;-62
2023/09/16 07:26:03;;;;;;;8.60;5.13;;;21.90;99.90;;;;;;4130204;28;20110;-61
2023/09/16 07:28:04;;;;;;;7.82;5.18;;;22.00;99.90;;;;;;4129256;28;20289;-62
2023/09/16 07:30:05;;;;;;;11.88;6.18;;;22.10;99.90;;;;;;4136850;28;20042;-62
2023/09/16 07:32:06;;;;;;;8.35;5.60;;;22.20;99.90;;;;;;4127024;28;20026;-61
2023/09/16 07:34:06;;;;;;;8.15;5.18;;;22.10;99.90;;;;;;4128472;28;20057;-61
2023/09/16 07:36:07;;;;;;;9.98;5.80;;;22.30;99.90;;;;;;4131497;28;20096;-61
2023/09/16 07:38:10;;;;;;;9.13;5.57;;;22.40;99.90;;;;;;4128330;28;20502;-60
2023/09/16 07:40:11;;;;;;;8.10;5.00;;;22.50;99.90;;;;;;4120911;28;20717;-62
2023/09/16 07:42:12;;;;;;;7.45;4.65;;;22.80;99.90;;;;;;4127028;28;20042;-61
2023/09/16 07:44:12;;;;;;;10.40;4.50;;;23.00;99.90;;;;;;4127858;28;20046;-61
2023/09/16 07:46:13;;;;;;;6.03;4.57;;;23.30;99.90;;;;;;4125469;28;20046;-61
2023/09/16 07:48:14;;;;;;;6.90;4.35;;;23.60;99.90;;;;;;4125643;28;20088;-61
2023/09/16 07:50:15;;;;;;;6.25;4.30;;;23.80;99.90;;;;;;4126086;28;20037;-61
2023/09/16 07:52:15;;;;;;;6.53;4.65;;;24.00;99.90;;;;;;4130383;28;20038;-61
2023/09/16 07:54:16;;;;;;;5.65;4.00;;;24.00;99.90;;;;;;4127455;28;20071;-61
2023/09/16 07:56:18;;;;;;;7.35;3.92;;;24.10;99.90;;;;;;4128908;28;20038;-61
2023/09/16 07:58:18;;;;;;;6.10;3.95;;;24.30;99.90;;;;;;4124567;28;20038;-61
2023/09/16 08:00:19;;;;;;;6.80;4.10;;;24.50;99.90;;;;;;4124722;28;20102;-68
2023/09/16 08:02:20;;;;;;;5.63;3.47;;;24.60;99.90;;;;;;4126232;28;20045;-68
2023/09/16 08:04:20;;;;;;;4.45;3.30;;;24.70;99.90;;;;;;4122883;28;20038;-69
2023/09/16 08:06:21;;;;;;;8.38;4.18;;;24.90;99.90;;;;;;4132177;28;20095;-69
2023/09/16 08:08:21;;;;;;;6.20;3.95;;;25.00;99.90;;;;;;4143139;28;20524;-68
2023/09/16 08:10:22;;;;;;;4.43;3.08;;;25.10;99.90;;;;;;4133973;28;20045;-68
2023/09/16 08:12:23;;;;;;;5.15;3.38;;;25.20;99.90;;;;;;4128470;28;20068;-68
2023/09/16 08:14:23;;;;;;;3.40;2.55;;;25.20;99.90;;;;;;4127841;28;20048;-69
2023/09/16 08:16:24;;;;;;;4.80;2.88;;;25.30;99.90;;;;;;4123932;28;20141;-68
2023/09/16 08:18:25;;;;;;;3.58;2.65;;;25.40;99.90;;;;;;4128066;28;20046;-69
2023/09/16 08:20:25;;;;;;;3.65;2.47;;;25.40;99.90;;;;;;4128673;28;20372;-69
2023/09/16 08:22:28;;;;;;;5.07;3.13;;;25.30;99.90;;;;;;4132981;28;20543;-67
2023/09/16 08:24:30;;;;;;;3.67;2.63;;;25.20;99.90;;;;;;4123357;28;20057;-68
2023/09/16 08:26:30;;;;;;;5.80;3.27;;;25.10;99.90;;;;;;4124591;28;20510;-68
2023/09/16 08:28:31;;;;;;;4.28;2.55;;;25.10;99.90;;;;;;4127922;28;20270;-68
2023/09/16 08:30:32;;;;;;;4.63;2.78;;;25.10;99.90;;;;;;4132404;28;20068;-68
2023/09/16 08:32:33;;;;;;;3.95;2.50;;;25.10;99.90;;;;;;4124761;28;20062;-69
2023/09/16 08:34:34;;;;;;;4.43;2.90;;;25.10;99.90;;;;;;4128638;28;20038;-69
2023/09/16 08:36:35;;;;;;;2.75;2.35;;;25.10;99.90;;;;;;4124808;28;20284;-68
2023/09/16 08:38:35;;;;;;;3.78;2.50;;;25.10;99.90;;;;;;4125754;28;20414;-69
2023/09/16 08:40:36;;;;;;;5.68;2.53;;;25.10;99.90;;;;;;4129369;28;20041;-68
2023/09/16 08:42:39;;;;;;;3.10;2.50;;;25.00;99.90;;;;;;4135278;28;20402;-68
2023/09/16 08:44:44;;;;;;;3.92;2.78;;;25.00;99.90;;;;;;4121149;28;20035;-68
2023/09/16 08:46:54;;;;;;;3.35;2.50;;;25.10;99.90;;;;;;4116435;28;20471;-68
2023/09/16 08:48:58;;;;;;;5.10;3.08;;;25.00;99.90;;;;;;4125277;28;20046;-68
2023/09/16 08:51:02;;;;;;;4.43;2.70;;;24.90;99.90;;;;;;4128149;28;20430;-68
2023/09/16 08:53:06;;;;;;;5.38;2.70;;;24.70;99.90;;;;;;4128953;28;20511;-68
2023/09/16 08:55:11;;;;;;;4.13;2.78;;;24.80;99.90;;;;;;4126454;28;20042;-68
2023/09/16 08:57:13;;;;;;;2.85;2.30;;;24.70;99.90;;;;;;4124958;28;20042;-68
2023/09/16 08:59:14;;;;;;;5.05;2.55;;;24.70;99.90;;;;;;4130889;28;20514;-68
2023/09/16 09:01:20;;;;;;;3.20;2.85;;;24.60;99.90;;;;;;4133431;28;20085;-68
2023/09/16 09:03:21;;;;;;;4.60;2.63;;;24.50;99.90;;;;;;4126110;28;20088;-68
2023/09/16 09:05:26;;;;;;;4.15;2.97;;;24.50;99.90;;;;;;4126712;28;20516;-68
2023/09/16 09:07:29;;;;;;;3.50;2.50;;;24.50;99.90;;;;;;4129575;28;20073;-68
2023/09/16 09:09:30;;;;;;;3.75;2.70;;;24.50;99.90;;;;;;4141117;28;20049;-68
2023/09/16 09:11:33;;;;;;;3.83;3.08;;;24.40;99.90;;;;;;4125079;28;20479;-68
2023/09/16 09:13:34;;;;;;;;;;;24.50;99.90;;;;;;4137392;28;20045;-68
2023/09/16 09:15:37;;;;;;;3.00;2.53;;;24.50;99.90;;;;;;4139883;28;20424;-68
2023/09/16 09:17:41;;;;;;;4.47;2.55;;;24.50;99.90;;;;;;4124654;28;20038;-68
2023/09/16 09:19:43;;;;;;;3.78;2.50;;;24.60;99.90;;;;;;4140759;28;20113;-68
2023/09/16 09:21:44;;;;;;;3.90;2.67;;;24.60;99.90;;;;;;4132920;28;20035;-68
2023/09/16 09:23:45;;;;;;;3.67;2.50;;;24.60;99.90;;;;;;4124986;28;20623;-68
2023/09/16 09:25:46;;;;;;;4.68;2.72;;;24.60;99.90;;;;;;4123983;28;20096;-68
2023/09/16 09:27:46;;;;;;;3.28;2.40;;;24.60;99.90;;;;;;4129830;28;20495;-68
2023/09/16 09:29:47;;;;;;;4.35;2.08;;;24.70;99.90;;;;;;4137780;28;20040;-68
2023/09/16 09:31:48;;;;;;;4.82;2.58;;;24.80;99.90;;;;;;4126106;28;20110;-68
2023/09/16 09:33:49;;;;;;;3.08;2.47;;;24.80;99.90;;;;;;4122705;28;20027;-68
2023/09/16 09:36:09;;;;;;;3.05;2.50;;;24.90;99.90;;;;;;4127465;28;20042;-68
2023/09/16 09:38:10;;;;;;;4.25;2.78;;;24.90;99.90;;;;;;4130106;28;20414;-68
2023/09/16 09:40:13;;;;;;;3.35;2.30;;;25.00;99.90;;;;;;4135829;28;20034;-69
2023/09/16 09:42:20;;;;;;;3.90;2.40;;;25.00;99.90;;;;;;4120445;28;20499;-68
2023/09/16 09:44:23;;;;;;;3.20;2.60;;;25.10;99.90;;;;;;4134063;28;20483;-68
2023/09/16 09:46:23;;;;;;;5.80;2.88;;;25.10;99.90;;;;;;4124018;28;20034;-69
2023/09/16 09:48:24;;;;;;;3.55;2.58;;;25.10;99.90;;;;;;4122190;28;20125;-69
2023/09/16 09:50:29;;;;;;;4.25;2.55;;;25.20;99.90;;;;;;4135332;28;20034;-69
2023/09/16 09:52:31;;;;;;;3.30;2.55;;;25.20;99.90;;;;;;4143042;28;20489;-69
2023/09/16 09:54:32;;;;;;;3.20;2.53;;;25.30;99.90;;;;;;4132529;28;20081;-69
2023/09/16 09:56:33;;;;;;;2.33;2.08;;;25.30;99.90;;;;;;4125140;28;20179;-69
2023/09/16 09:58:33;;;;;;;3.30;2.92;;;25.40;99.90;;;;;;4127115;28;20046;-69
2023/09/16 10:00:34;;;;;;;3.80;3.00;;;25.40;99.90;;;;;;4134199;28;20671;-68
2023/09/16 10:02:39;;;;;;;4.35;2.85;;;25.40;99.90;;;;;;4117449;28;20092;-68
2023/09/16 10:04:40;;;;;;;2.50;2.30;;;25.40;99.90;;;;;;4133574;28;20034;-68
2023/09/16 10:06:40;;;;;;;3.67;2.60;;;25.40;99.90;;;;;;4123770;28;20053;-68
2023/09/16 10:08:42;;;;;;;3.50;2.65;;;25.50;99.90;;;;;;4125688;28;20052;-68
2023/09/16 10:10:46;;;;;;;3.97;3.00;;;25.50;99.90;;;;;;4127478;28;20050;-68
2023/09/16 10:12:50;;;;;;;4.60;2.60;;;25.50;99.90;;;;;;4124895;28;20031;-68
2023/09/16 10:14:51;;;;;;;5.05;3.40;;;25.60;99.90;;;;;;4126536;28;20125;-68
2023/09/16 10:16:52;;;;;;;5.05;3.20;;;25.60;99.90;;;;;;4121353;28;20139;-68
2023/09/16 10:18:53;;;;;;;4.65;2.90;;;25.70;99.90;;;;;;4124162;28;20068;-68
2023/09/16 10:20:55;;;;;;;3.83;3.03;;;25.70;99.90;;;;;;4126266;28;20582;-68
2023/09/16 10:22:57;;;;;;;4.53;3.25;;;25.70;99.90;;;;;;4143806;28;20083;-68
2023/09/16 10:24:58;;;;;;;4.07;3.15;;;25.80;99.90;;;;;;4143072;28;20042;-68
2023/09/16 10:27:06;;;;;;;4.47;3.08;;;25.80;99.90;;;;;;4130638;28;20092;-68
2023/09/16 10:29:08;;;;;;;3.85;3.05;;;25.80;99.90;;;;;;4124850;28;20494;-68
2023/09/16 10:31:09;;;;;;;5.30;3.30;;;25.90;99.90;;;;;;4129201;28;20050;-68
2023/09/16 10:33:11;;;;;;;5.18;3.72;;;25.90;99.90;;;;;;4126496;28;20042;-68